createdAt,value
2024-02-24T00:00:47.922Z,604.00
2024-02-24T00:01:47.929Z,600.00
2024-02-24T00:02:47.967Z,601.00
2024-02-24T00:03:47.966Z,601.00
2024-02-24T00:04:47.958Z,602.00
2024-02-24T00:05:48.013Z,601.00
2024-02-24T00:06:48.029Z,603.00
2024-02-24T00:07:47.976Z,606.00
2024-02-24T00:08:48.036Z,601.00
2024-02-24T00:09:47.973Z,600.00
2024-02-24T00:10:48.031Z,600.00
2024-02-24T00:11:48.111Z,600.00
2024-02-24T00:12:48.043Z,602.00
2024-02-24T00:13:48.043Z,603.00
2024-02-24T00:14:48.083Z,602.00
2024-02-24T00:15:48.082Z,603.00
2024-02-24T00:16:48.040Z,600.00
2024-02-24T00:17:48.205Z,602.00
2024-02-24T00:18:48.126Z,603.00
2024-02-24T00:19:48.107Z,604.00
2024-02-24T00:20:48.135Z,603.00
2024-02-24T00:21:48.086Z,605.00
2024-02-24T00:22:48.112Z,603.00
2024-02-24T00:23:48.176Z,599.00
2024-02-24T00:24:48.111Z,605.00
2024-02-24T00:25:48.123Z,604.00
2024-02-24T00:26:48.186Z,602.00
2024-02-24T00:27:48.223Z,601.00
2024-02-24T00:28:48.209Z,603.00
2024-02-24T00:29:48.298Z,600.00
2024-02-24T00:30:48.319Z,596.00
2024-02-24T00:31:48.379Z,605.00
2024-02-24T00:32:48.549Z,602.00
2024-02-24T00:33:48.517Z,602.00
2024-02-24T00:34:48.510Z,604.00
2024-02-24T00:35:48.643Z,605.00
2024-02-24T00:36:48.620Z,603.00
2024-02-24T00:37:48.699Z,603.00
2024-02-24T00:38:48.795Z,603.00
2024-02-24T00:39:48.809Z,602.00
2024-02-24T00:40:48.854Z,604.00
2024-02-24T00:41:48.991Z,604.00
2024-02-24T00:42:48.961Z,602.00
2024-02-24T00:43:49.048Z,603.00
2024-02-24T00:44:49.109Z,601.00
2024-02-24T00:45:49.152Z,603.00
2024-02-24T00:46:49.194Z,603.00
2024-02-24T00:47:49.323Z,604.00
2024-02-24T00:48:49.285Z,600.00
2024-02-24T00:49:49.245Z,603.00
2024-02-24T00:50:49.279Z,600.00
2024-02-24T00:51:49.285Z,603.00
2024-02-24T00:52:49.264Z,601.00
2024-02-24T00:53:49.375Z,600.00
2024-02-24T00:54:49.315Z,598.00
2024-02-24T00:55:49.321Z,601.00
2024-02-24T00:56:49.405Z,603.00
2024-02-24T00:57:49.304Z,603.00
2024-02-24T00:58:49.346Z,604.00
2024-02-24T00:59:49.357Z,600.00
2024-02-24T01:00:49.520Z,606.00
2024-02-24T01:01:49.360Z,603.00
2024-02-24T01:02:49.433Z,602.00
2024-02-24T01:03:49.498Z,604.00
2024-02-24T01:04:49.416Z,603.00
2024-02-24T01:05:49.518Z,600.00
2024-02-24T01:06:49.445Z,603.00
2024-02-24T01:07:49.489Z,603.00
2024-02-24T01:08:49.457Z,602.00
2024-02-24T01:09:49.460Z,603.00
2024-02-24T01:10:49.504Z,603.00
2024-02-24T01:11:49.775Z,602.00
2024-02-24T01:12:49.640Z,603.00
2024-02-24T01:13:49.793Z,600.00
2024-02-24T01:14:49.867Z,602.00
2024-02-24T01:15:49.815Z,604.00
2024-02-24T01:16:49.921Z,602.00
2024-02-24T01:17:50.072Z,601.00
2024-02-24T01:18:50.096Z,601.00
2024-02-24T01:19:50.090Z,606.00
2024-02-24T01:20:50.242Z,601.00
2024-02-24T01:21:50.183Z,604.00
2024-02-24T01:22:50.273Z,601.00
2024-02-24T01:23:50.397Z,602.00
2024-02-24T01:24:50.393Z,604.00
2024-02-24T01:25:50.959Z,605.00
2024-02-24T01:26:50.531Z,602.00
2024-02-24T01:27:50.551Z,603.00
2024-02-24T01:28:50.630Z,602.00
2024-02-24T01:29:50.726Z,607.00
2024-02-24T01:30:50.754Z,601.00
2024-02-24T01:31:50.793Z,600.00
2024-02-24T01:32:51.056Z,602.00
2024-02-24T01:33:51.029Z,604.00
2024-02-24T01:34:50.984Z,602.00
2024-02-24T01:35:51.135Z,604.00
2024-02-24T01:36:51.112Z,604.00
2024-02-24T01:37:51.121Z,603.00
2024-02-24T01:38:51.208Z,604.00
2024-02-24T01:39:51.136Z,605.00
2024-02-24T01:40:51.182Z,601.00
2024-02-24T01:41:51.202Z,601.00
2024-02-24T01:42:51.184Z,603.00
2024-02-24T01:43:51.185Z,602.00
2024-02-24T01:44:51.239Z,605.00
2024-02-24T01:45:51.206Z,606.00
2024-02-24T01:46:51.240Z,601.00
2024-02-24T01:47:51.363Z,601.00
2024-02-24T01:48:51.341Z,604.00
2024-02-24T01:49:51.345Z,602.00
2024-02-24T01:50:51.436Z,601.00
2024-02-24T01:51:51.554Z,601.00
2024-02-24T01:52:51.620Z,600.00
2024-02-24T01:53:51.609Z,598.00
2024-02-24T01:54:51.604Z,600.00
2024-02-24T01:55:51.666Z,599.00
2024-02-24T01:56:51.793Z,601.00
2024-02-24T01:57:51.783Z,602.00
2024-02-24T01:58:51.856Z,603.00
2024-02-24T01:59:51.908Z,601.00
2024-02-24T02:00:51.940Z,601.00
2024-02-24T02:01:51.970Z,600.00
2024-02-24T02:02:51.974Z,601.00
2024-02-24T02:03:51.977Z,603.00
2024-02-24T02:04:51.999Z,604.00
2024-02-24T02:05:52.173Z,603.00
2024-02-24T02:06:52.145Z,604.00
2024-02-24T02:07:52.163Z,602.00
2024-02-24T02:08:52.280Z,604.00
2024-02-24T02:09:52.282Z,605.00
2024-02-24T02:10:52.594Z,600.00
2024-02-24T02:12:00.578Z,602.00
2024-02-24T02:12:53.555Z,603.00
2024-02-24T02:13:52.477Z,603.00
2024-02-24T02:14:52.517Z,602.00
2024-02-24T02:15:52.474Z,602.00
2024-02-24T02:16:52.462Z,604.00
2024-02-24T02:17:52.592Z,602.00
2024-02-24T02:18:52.525Z,602.00
2024-02-24T02:19:52.483Z,601.00
2024-02-24T02:20:52.682Z,600.00
2024-02-24T02:21:52.470Z,600.00
2024-02-24T02:22:52.513Z,601.00
2024-02-24T02:23:52.613Z,603.00
2024-02-24T02:24:52.598Z,604.00
2024-02-24T02:25:52.643Z,606.00
2024-02-24T02:26:52.666Z,606.00
2024-02-24T02:27:52.672Z,600.00
2024-02-24T02:28:52.701Z,602.00
2024-02-24T02:29:52.824Z,604.00
2024-02-24T02:30:53.406Z,605.00
2024-02-24T02:31:52.882Z,602.00
2024-02-24T02:32:53.132Z,600.00
2024-02-24T02:33:52.983Z,604.00
2024-02-24T02:34:52.963Z,605.00
2024-02-24T02:35:53.068Z,602.00
2024-02-24T02:36:53.024Z,603.00
2024-02-24T02:37:53.045Z,601.00
2024-02-24T02:38:53.057Z,604.00
2024-02-24T02:39:53.115Z,604.00
2024-02-24T02:40:53.124Z,601.00
2024-02-24T02:41:53.113Z,600.00
2024-02-24T02:42:53.154Z,602.00
2024-02-24T02:43:53.175Z,602.00
2024-02-24T02:44:53.201Z,603.00
2024-02-24T02:45:53.236Z,600.00
2024-02-24T02:46:53.272Z,604.00
2024-02-24T02:47:53.309Z,602.00
2024-02-24T02:48:53.469Z,600.00
2024-02-24T02:49:53.297Z,600.00
2024-02-24T02:50:53.326Z,603.00
2024-02-24T02:51:53.348Z,602.00
2024-02-24T02:52:53.354Z,607.00
2024-02-24T02:53:53.402Z,604.00
2024-02-24T02:54:53.388Z,601.00
2024-02-24T02:55:53.420Z,600.00
2024-02-24T02:56:53.583Z,603.00
2024-02-24T02:57:53.531Z,604.00
2024-02-24T02:58:53.625Z,603.00
2024-02-24T02:59:53.746Z,604.00
2024-02-24T03:00:53.790Z,602.00
2024-02-24T03:01:53.804Z,602.00
2024-02-24T03:02:53.953Z,602.00
2024-02-24T03:03:54.022Z,601.00
2024-02-24T03:04:54.020Z,602.00
2024-02-24T03:05:54.217Z,602.00
2024-02-24T03:06:54.287Z,602.00
2024-02-24T03:07:54.227Z,601.00
2024-02-24T03:08:56.868Z,601.00
2024-02-24T03:09:54.308Z,605.00
2024-02-24T03:10:54.361Z,601.00
2024-02-24T03:11:54.387Z,601.00
2024-02-24T03:12:54.323Z,601.00
2024-02-24T03:13:54.386Z,607.00
2024-02-24T03:14:54.299Z,600.00
2024-02-24T03:15:54.333Z,603.00
2024-02-24T03:16:54.312Z,601.00
2024-02-24T03:17:54.435Z,601.00
2024-02-24T03:18:54.370Z,602.00
2024-02-24T03:19:54.343Z,601.00
2024-02-24T03:20:54.361Z,605.00
2024-02-24T03:21:54.328Z,604.00
2024-02-24T03:22:54.344Z,603.00
2024-02-24T03:23:54.350Z,603.00
2024-02-24T03:24:54.354Z,604.00
2024-02-24T03:25:54.340Z,604.00
2024-02-24T03:26:54.315Z,603.00
2024-02-24T03:27:54.340Z,604.00
2024-02-24T03:28:54.371Z,603.00
2024-02-24T03:29:54.336Z,603.00
2024-02-24T03:30:54.343Z,604.00
2024-02-24T03:31:54.388Z,603.00
2024-02-24T03:32:54.436Z,601.00
2024-02-24T03:33:54.514Z,599.00
2024-02-24T03:34:54.338Z,603.00
2024-02-24T03:35:54.397Z,605.00
2024-02-24T03:36:54.360Z,602.00
2024-02-24T03:37:54.358Z,600.00
2024-02-24T03:38:54.389Z,602.00
2024-02-24T03:39:54.346Z,602.00
2024-02-24T03:40:54.378Z,600.00
2024-02-24T03:41:54.453Z,603.00
2024-02-24T03:42:54.373Z,603.00
2024-02-24T03:43:54.360Z,602.00
2024-02-24T03:44:54.431Z,603.00
2024-02-24T03:45:54.390Z,602.00
2024-02-24T03:46:54.387Z,603.00
2024-02-24T03:47:54.609Z,604.00
2024-02-24T03:48:54.441Z,602.00
2024-02-24T03:49:54.443Z,604.00
2024-02-24T03:50:54.521Z,604.00
2024-02-24T03:51:54.553Z,603.00
2024-02-24T03:52:54.637Z,603.00
2024-02-24T03:53:54.755Z,604.00
2024-02-24T03:54:54.791Z,602.00
2024-02-24T03:55:54.825Z,603.00
2024-02-24T03:56:54.970Z,602.00
2024-02-24T03:57:54.980Z,604.00
2024-02-24T03:58:55.067Z,602.00
2024-02-24T03:59:55.156Z,602.00
2024-02-24T04:00:55.289Z,602.00
2024-02-24T04:01:55.272Z,603.00
2024-02-24T04:02:55.343Z,605.00
2024-02-24T04:03:55.431Z,601.00
2024-02-24T04:04:55.528Z,604.00
2024-02-24T04:05:55.632Z,600.00
2024-02-24T04:06:55.671Z,602.00
2024-02-24T04:07:55.661Z,599.00
2024-02-24T04:08:55.766Z,602.00
2024-02-24T04:09:55.729Z,601.00
2024-02-24T04:10:55.756Z,602.00
2024-02-24T04:11:55.870Z,600.00
2024-02-24T04:12:55.845Z,604.00
2024-02-24T04:13:55.875Z,603.00
2024-02-24T04:14:56.001Z,602.00
2024-02-24T04:15:56.004Z,600.00
2024-02-24T04:16:56.097Z,602.00
2024-02-24T04:17:56.235Z,601.00
2024-02-24T04:18:56.355Z,604.00
2024-02-24T04:20:03.538Z,600.00
2024-02-24T04:21:03.509Z,600.00
2024-02-24T04:22:03.511Z,600.00
2024-02-24T04:23:03.518Z,600.00
2024-02-24T04:24:03.538Z,600.00
2024-02-24T04:25:03.546Z,603.00
2024-02-24T04:26:03.509Z,600.00
2024-02-24T04:27:03.536Z,605.00
2024-02-24T04:28:03.560Z,601.00
2024-02-24T04:29:03.550Z,601.00
2024-02-24T04:30:03.517Z,602.00
2024-02-24T04:31:10.711Z,600.00
2024-02-24T04:32:10.709Z,600.00
2024-02-24T04:33:10.799Z,600.00
2024-02-24T04:34:10.746Z,600.00
2024-02-24T04:35:10.763Z,600.00
2024-02-24T04:36:10.762Z,603.00
2024-02-24T04:37:10.749Z,603.00
2024-02-24T04:38:10.777Z,603.00
2024-02-24T04:39:10.733Z,603.00
2024-02-24T04:40:10.739Z,603.00
2024-02-24T04:41:10.775Z,602.00
2024-02-24T04:42:10.742Z,605.00
2024-02-24T04:43:10.746Z,602.00
2024-02-24T04:44:10.815Z,605.00
2024-02-24T04:45:10.770Z,601.00
2024-02-24T04:46:10.745Z,600.00
2024-02-24T04:47:10.787Z,604.00
2024-02-24T04:48:10.804Z,602.00
2024-02-24T04:49:10.838Z,601.00
2024-02-24T04:50:10.829Z,602.00
2024-02-24T04:51:10.787Z,603.00
2024-02-24T04:52:10.771Z,602.00
2024-02-24T04:53:10.779Z,604.00
2024-02-24T04:54:10.797Z,606.00
2024-02-24T04:55:10.747Z,602.00
2024-02-24T04:56:10.843Z,600.00
2024-02-24T04:57:10.755Z,601.00
2024-02-24T04:58:10.751Z,602.00
2024-02-24T04:59:10.764Z,605.00
2024-02-24T05:00:10.759Z,603.00
2024-02-24T05:01:10.808Z,605.00
2024-02-24T05:02:10.826Z,602.00
2024-02-24T05:03:10.765Z,602.00
2024-02-24T05:04:10.840Z,603.00
2024-02-24T05:05:10.807Z,602.00
2024-02-24T05:06:10.893Z,600.00
2024-02-24T05:07:10.896Z,603.00
2024-02-24T05:08:11.017Z,603.00
2024-02-24T05:09:11.456Z,602.00
2024-02-24T05:10:11.054Z,607.00
2024-02-24T05:11:11.125Z,607.00
2024-02-24T05:12:11.184Z,607.00
2024-02-24T05:13:11.215Z,604.00
2024-02-24T05:14:11.272Z,604.00
2024-02-24T05:15:11.312Z,603.00
2024-02-24T05:16:11.403Z,600.00
2024-02-24T05:17:11.411Z,603.00
2024-02-24T05:18:11.553Z,603.00
2024-02-24T05:19:11.565Z,604.00
2024-02-24T05:20:11.506Z,601.00
2024-02-24T05:21:11.483Z,604.00
2024-02-24T05:22:11.492Z,604.00
2024-02-24T05:23:11.578Z,600.00
2024-02-24T05:24:11.559Z,601.00
2024-02-24T05:25:11.595Z,602.00
2024-02-24T05:26:11.643Z,603.00
2024-02-24T05:27:11.619Z,600.00
2024-02-24T05:28:11.674Z,602.00
2024-02-24T05:29:11.681Z,601.00
2024-02-24T05:30:11.681Z,602.00
2024-02-24T05:31:11.737Z,603.00
2024-02-24T05:32:11.755Z,601.00
2024-02-24T05:33:11.922Z,606.00
2024-02-24T05:34:11.937Z,606.00
2024-02-24T05:35:11.834Z,605.00
2024-02-24T05:36:11.844Z,605.00
2024-02-24T05:37:11.916Z,605.00
2024-02-24T05:38:11.950Z,605.00
2024-02-24T05:39:11.924Z,604.00
2024-02-24T05:40:12.004Z,604.00
2024-02-24T05:41:12.016Z,601.00
2024-02-24T05:42:11.983Z,601.00
2024-02-24T05:43:12.052Z,601.00
2024-02-24T05:44:12.065Z,605.00
2024-02-24T05:45:12.066Z,603.00
2024-02-24T05:46:12.087Z,603.00
2024-02-24T05:47:12.144Z,601.00
2024-02-24T05:48:12.296Z,601.00
2024-02-24T05:49:12.182Z,601.00
2024-02-24T05:50:12.197Z,601.00
2024-02-24T05:51:12.211Z,605.00
2024-02-24T05:52:12.257Z,603.00
2024-02-24T05:53:12.327Z,603.00
2024-02-24T05:54:12.380Z,603.00
2024-02-24T05:55:12.413Z,602.00
2024-02-24T05:56:12.426Z,601.00
2024-02-24T05:57:12.454Z,600.00
2024-02-24T05:58:12.456Z,604.00
2024-02-24T05:59:12.514Z,605.00
2024-02-24T06:00:12.694Z,601.00
2024-02-24T06:01:12.621Z,603.00
2024-02-24T06:02:12.583Z,601.00
2024-02-24T06:03:12.632Z,602.00
2024-02-24T06:04:12.646Z,600.00
2024-02-24T06:05:12.716Z,605.00
2024-02-24T06:06:12.818Z,602.00
2024-02-24T06:07:12.713Z,602.00
2024-02-24T06:08:12.792Z,601.00
2024-02-24T06:09:12.769Z,606.00
2024-02-24T06:10:12.860Z,604.00
2024-02-24T06:11:12.917Z,603.00
2024-02-24T06:12:12.950Z,601.00
2024-02-24T06:13:12.916Z,601.00
2024-02-24T06:14:12.940Z,604.00
2024-02-24T06:15:12.958Z,606.00
2024-02-24T06:16:12.968Z,606.00
2024-02-24T06:17:13.032Z,603.00
2024-02-24T06:18:13.123Z,603.00
2024-02-24T06:19:13.127Z,602.00
2024-02-24T06:20:13.125Z,604.00
2024-02-24T06:21:13.090Z,608.00
2024-02-24T06:22:13.207Z,604.00
2024-02-24T06:23:13.179Z,601.00
2024-02-24T06:24:13.206Z,603.00
2024-02-24T06:25:13.218Z,602.00
2024-02-24T06:26:13.254Z,603.00
2024-02-24T06:28:01.890Z,600.00
2024-02-24T06:29:01.882Z,600.00
2024-02-24T06:30:01.870Z,600.00
2024-02-24T06:31:01.873Z,600.00
2024-02-24T06:32:01.891Z,600.00
2024-02-24T06:33:02.018Z,600.00
2024-02-24T06:34:03.531Z,602.00
2024-02-24T06:35:01.969Z,602.00
2024-02-24T06:36:01.971Z,602.00
2024-02-24T06:37:01.903Z,603.00
2024-02-24T06:38:01.878Z,599.00
2024-02-24T06:39:01.913Z,598.00
2024-02-24T06:40:01.907Z,601.00
2024-02-24T06:41:01.930Z,602.00
2024-02-24T06:42:01.893Z,601.00
2024-02-24T06:43:01.905Z,601.00
2024-02-24T06:44:01.911Z,601.00
2024-02-24T06:45:01.907Z,602.00
2024-02-24T06:46:01.898Z,605.00
2024-02-24T06:47:04.383Z,601.00
2024-02-24T06:48:02.971Z,601.00
2024-02-24T06:49:02.131Z,602.00
2024-02-24T06:50:01.937Z,602.00
2024-02-24T06:51:01.959Z,602.00
2024-02-24T06:52:01.919Z,602.00
2024-02-24T06:53:01.928Z,602.00
2024-02-24T06:54:02.062Z,603.00
2024-02-24T06:55:01.934Z,601.00
2024-02-24T06:56:01.935Z,603.00
2024-02-24T06:57:02.035Z,600.00
2024-02-24T06:58:01.934Z,602.00
2024-02-24T06:59:01.921Z,600.00
2024-02-24T07:00:01.966Z,604.00
2024-02-24T07:01:01.969Z,603.00
2024-02-24T07:02:01.974Z,606.00
2024-02-24T07:03:02.059Z,600.00
2024-02-24T07:04:01.962Z,600.00
2024-02-24T07:05:01.960Z,600.00
2024-02-24T07:06:02.133Z,602.00
2024-02-24T07:07:02.079Z,603.00
2024-02-24T07:08:02.042Z,602.00
2024-02-24T07:09:01.982Z,606.00
2024-02-24T07:10:01.961Z,604.00
2024-02-24T07:11:01.970Z,601.00
2024-02-24T07:12:02.070Z,603.00
2024-02-24T07:13:01.976Z,604.00
2024-02-24T07:14:01.959Z,601.00
2024-02-24T07:15:02.025Z,605.00
2024-02-24T07:16:02.068Z,604.00
2024-02-24T07:17:02.054Z,604.00
2024-02-24T07:18:02.169Z,602.00
2024-02-24T07:19:02.259Z,603.00
2024-02-24T07:20:02.203Z,601.00
2024-02-24T07:21:03.760Z,603.00
2024-02-24T07:22:02.296Z,601.00
2024-02-24T07:23:02.364Z,603.00
2024-02-24T07:24:02.399Z,603.00
2024-02-24T07:25:02.406Z,603.00
2024-02-24T07:26:02.453Z,605.00
2024-02-24T07:27:02.561Z,605.00
2024-02-24T07:28:02.613Z,605.00
2024-02-24T07:29:02.672Z,601.00
2024-02-24T07:30:02.756Z,606.00
2024-02-24T07:31:02.707Z,601.00
2024-02-24T07:32:02.739Z,603.00
2024-02-24T07:33:03.045Z,604.00
2024-02-24T07:34:03.052Z,600.00
2024-02-24T07:35:02.901Z,601.00
2024-02-24T07:36:02.949Z,603.00
2024-02-24T07:37:03.039Z,603.00
2024-02-24T07:38:03.051Z,603.00
2024-02-24T07:39:03.149Z,602.00
2024-02-24T07:40:03.179Z,602.00
2024-02-24T07:41:03.192Z,604.00
2024-02-24T07:42:03.239Z,605.00
2024-02-24T07:43:03.282Z,606.00
2024-02-24T07:44:03.290Z,602.00
2024-02-24T07:45:03.354Z,601.00
2024-02-24T07:46:03.343Z,604.00
2024-02-24T07:47:03.367Z,603.00
2024-02-24T07:48:03.482Z,600.00
2024-02-24T07:49:03.502Z,607.00
2024-02-24T07:50:03.405Z,606.00
2024-02-24T07:51:03.455Z,603.00
2024-02-24T07:52:03.462Z,602.00
2024-02-24T07:53:03.482Z,602.00
2024-02-24T07:54:03.570Z,602.00
2024-02-24T07:55:03.650Z,603.00
2024-02-24T07:56:03.723Z,605.00
2024-02-24T07:57:03.617Z,602.00
2024-02-24T07:58:03.653Z,600.00
2024-02-24T07:59:03.671Z,601.00
2024-02-24T08:00:03.710Z,607.00
2024-02-24T08:01:03.873Z,606.00
2024-02-24T08:02:03.783Z,603.00
2024-02-24T08:03:03.785Z,602.00
2024-02-24T08:04:03.849Z,605.00
2024-02-24T08:05:03.831Z,601.00
2024-02-24T08:06:03.872Z,604.00
2024-02-24T08:07:04.020Z,600.00
2024-02-24T08:08:03.997Z,603.00
2024-02-24T08:09:04.137Z,605.00
2024-02-24T08:10:03.980Z,602.00
2024-02-24T08:11:03.994Z,605.00
2024-02-24T08:12:04.163Z,604.00
2024-02-24T08:13:04.031Z,601.00
2024-02-24T08:14:04.044Z,603.00
2024-02-24T08:15:04.142Z,603.00
2024-02-24T08:16:04.080Z,602.00
2024-02-24T08:17:04.136Z,604.00
2024-02-24T08:18:04.248Z,603.00
2024-02-24T08:19:04.335Z,604.00
2024-02-24T08:20:04.184Z,602.00
2024-02-24T08:21:04.215Z,602.00
2024-02-24T08:22:04.220Z,602.00
2024-02-24T08:23:04.220Z,603.00
2024-02-24T08:24:04.229Z,603.00
2024-02-24T08:25:04.251Z,604.00
2024-02-24T08:26:04.257Z,602.00
2024-02-24T08:27:04.291Z,604.00
2024-02-24T08:28:04.285Z,602.00
2024-02-24T08:29:04.317Z,602.00
2024-02-24T08:30:04.389Z,603.00
2024-02-24T08:31:04.433Z,605.00
2024-02-24T08:32:04.484Z,601.00
2024-02-24T08:33:04.674Z,604.00
2024-02-24T08:34:04.863Z,604.00
2024-02-24T08:35:04.729Z,601.00
2024-02-24T08:36:04.794Z,603.00
2024-02-24T08:37:04.856Z,600.00
2024-02-24T08:38:04.889Z,604.00
2024-02-24T08:39:04.997Z,604.00
2024-02-24T08:40:05.006Z,600.00
2024-02-24T08:41:04.998Z,602.00
2024-02-24T08:42:05.083Z,602.00
2024-02-24T08:43:05.049Z,604.00
2024-02-24T08:44:05.045Z,603.00
2024-02-24T08:45:05.092Z,603.00
2024-02-24T08:46:05.124Z,603.00
2024-02-24T08:47:05.198Z,605.00
2024-02-24T08:48:05.298Z,605.00
2024-02-24T08:49:05.297Z,604.00
2024-02-24T08:50:05.425Z,607.00
2024-02-24T08:51:05.517Z,606.00
2024-02-24T08:52:05.400Z,607.00
2024-02-24T08:53:05.413Z,607.00
2024-02-24T08:54:05.434Z,609.00
2024-02-24T08:55:05.496Z,608.00
2024-02-24T08:56:05.486Z,608.00
2024-02-24T08:57:05.543Z,608.00
2024-02-24T08:58:05.608Z,609.00
2024-02-24T08:59:05.637Z,609.00
2024-02-24T09:00:05.674Z,610.00
2024-02-24T09:01:05.717Z,612.00
2024-02-24T09:02:05.729Z,611.00
2024-02-24T09:03:05.792Z,612.00
2024-02-24T09:04:05.845Z,613.00
2024-02-24T09:05:05.901Z,613.00
2024-02-24T09:06:05.937Z,614.00
2024-02-24T09:07:06.109Z,613.00
2024-02-24T09:08:06.080Z,615.00
2024-02-24T09:09:06.136Z,613.00
2024-02-24T09:10:07.314Z,615.00
2024-02-24T09:11:06.199Z,614.00
2024-02-24T09:12:06.222Z,617.00
2024-02-24T09:13:06.220Z,615.00
2024-02-24T09:14:06.239Z,617.00
2024-02-24T09:15:06.234Z,615.00
2024-02-24T09:16:06.285Z,616.00
2024-02-24T09:17:06.217Z,616.00
2024-02-24T09:18:06.511Z,616.00
2024-02-24T09:19:06.295Z,613.00
2024-02-24T09:20:06.227Z,616.00
2024-02-24T09:21:06.232Z,616.00
2024-02-24T09:22:06.266Z,615.00
2024-02-24T09:23:06.227Z,612.00
2024-02-24T09:24:06.212Z,614.00
2024-02-24T09:25:06.225Z,617.00
2024-02-24T09:26:06.248Z,616.00
2024-02-24T09:27:06.214Z,617.00
2024-02-24T09:28:07.155Z,618.00
2024-02-24T09:29:06.217Z,614.00
2024-02-24T09:30:06.237Z,613.00
2024-02-24T09:31:06.252Z,623.00
2024-02-24T09:32:06.245Z,617.00
2024-02-24T09:33:06.326Z,616.00
2024-02-24T09:34:07.487Z,618.00
2024-02-24T09:35:06.236Z,616.00
2024-02-24T09:36:06.289Z,615.00
2024-02-24T09:37:06.417Z,618.00
2024-02-24T09:38:06.394Z,618.00
2024-02-24T09:39:06.420Z,619.00
2024-02-24T09:40:06.481Z,617.00
2024-02-24T09:41:06.502Z,617.00
2024-02-24T09:42:06.512Z,618.00
2024-02-24T09:43:06.627Z,611.00
2024-02-24T09:44:06.563Z,615.00
2024-02-24T09:45:06.566Z,618.00
2024-02-24T09:46:06.644Z,616.00
2024-02-24T09:47:06.711Z,616.00
2024-02-24T09:48:06.858Z,614.00
2024-02-24T09:49:06.867Z,615.00
2024-02-24T09:50:06.826Z,617.00
2024-02-24T09:51:06.853Z,615.00
2024-02-24T09:52:06.909Z,610.00
2024-02-24T09:53:06.957Z,612.00
2024-02-24T09:54:06.962Z,619.00
2024-02-24T09:55:07.031Z,618.00
2024-02-24T09:56:07.017Z,618.00
2024-02-24T09:57:07.062Z,613.00
2024-02-24T09:58:07.109Z,620.00
2024-02-24T09:59:07.175Z,614.00
2024-02-24T10:00:07.169Z,616.00
2024-02-24T10:01:07.282Z,615.00
2024-02-24T10:02:07.224Z,613.00
2024-02-24T10:03:07.479Z,615.00
2024-02-24T10:04:07.613Z,615.00
2024-02-24T10:05:07.529Z,613.00
2024-02-24T10:06:07.583Z,619.00
2024-02-24T10:07:07.564Z,618.00
2024-02-24T10:08:07.648Z,615.00
2024-02-24T10:09:07.710Z,616.00
2024-02-24T10:10:07.784Z,619.00
2024-02-24T10:11:07.883Z,617.00
2024-02-24T10:12:07.892Z,617.00
2024-02-24T10:13:07.853Z,616.00
2024-02-24T10:14:07.901Z,622.00
2024-02-24T10:15:07.928Z,620.00
2024-02-24T10:16:07.956Z,618.00
2024-02-24T10:17:07.973Z,621.00
2024-02-24T10:18:08.266Z,617.00
2024-02-24T10:19:08.238Z,616.00
2024-02-24T10:20:08.082Z,619.00
2024-02-24T10:21:08.120Z,617.00
2024-02-24T10:22:08.119Z,619.00
2024-02-24T10:23:08.151Z,617.00
2024-02-24T10:24:08.162Z,614.00
2024-02-24T10:25:08.198Z,613.00
2024-02-24T10:26:08.198Z,617.00
2024-02-24T10:27:08.260Z,623.00
2024-02-24T10:28:08.366Z,616.00
2024-02-24T10:29:08.425Z,616.00
2024-02-24T10:30:08.476Z,618.00
2024-02-24T10:31:08.551Z,617.00
2024-02-24T10:32:08.621Z,619.00
2024-02-24T10:33:08.722Z,616.00
2024-02-24T10:34:08.736Z,619.00
2024-02-24T10:35:08.701Z,619.00
2024-02-24T10:36:08.881Z,620.00
2024-02-24T10:37:08.755Z,619.00
2024-02-24T10:39:08.811Z,615.00
2024-02-24T10:40:08.781Z,619.00
2024-02-24T10:41:08.789Z,620.00
2024-02-24T10:42:08.937Z,617.00
2024-02-24T10:43:08.899Z,617.00
2024-02-24T10:44:15.227Z,622.00
2024-02-24T10:45:09.953Z,622.00
2024-02-24T10:46:08.907Z,622.00
2024-02-24T10:47:08.885Z,622.00
2024-02-24T10:48:09.141Z,622.00
2024-02-24T10:49:08.987Z,624.00
2024-02-24T10:50:08.905Z,620.00
2024-02-24T10:51:08.945Z,622.00
2024-02-24T10:52:08.894Z,619.00
2024-02-24T10:53:08.903Z,620.00
2024-02-24T10:54:09.027Z,624.00
2024-02-24T10:55:08.974Z,620.00
2024-02-24T10:56:09.109Z,625.00
2024-02-24T10:57:09.120Z,625.00
2024-02-24T10:58:09.151Z,623.00
2024-02-24T10:59:09.235Z,622.00
2024-02-24T11:00:09.280Z,618.00
2024-02-24T11:01:11.088Z,623.00
2024-02-24T11:02:09.401Z,622.00
2024-02-24T11:03:09.452Z,622.00
2024-02-24T11:04:09.545Z,627.00
2024-02-24T11:05:09.605Z,626.00
2024-02-24T11:06:09.696Z,624.00
2024-02-24T11:07:09.783Z,623.00
2024-02-24T11:08:09.833Z,623.00
2024-02-24T11:09:09.800Z,624.00
2024-02-24T11:10:09.854Z,621.00
2024-02-24T11:11:09.995Z,623.00
2024-02-24T11:12:10.021Z,623.00
2024-02-24T11:13:10.036Z,627.00
2024-02-24T11:14:10.618Z,626.00
2024-02-24T11:15:10.156Z,624.00
2024-02-24T11:16:10.213Z,625.00
2024-02-24T11:17:10.235Z,623.00
2024-02-24T11:18:10.398Z,629.00
2024-02-24T11:19:10.443Z,625.00
2024-02-24T11:20:10.421Z,627.00
2024-02-24T11:21:10.471Z,626.00
2024-02-24T11:22:10.538Z,624.00
2024-02-24T11:23:10.587Z,626.00
2024-02-24T11:24:10.634Z,625.00
2024-02-24T11:25:10.663Z,623.00
2024-02-24T11:26:10.712Z,627.00
2024-02-24T11:27:10.793Z,628.00
2024-02-24T11:28:10.837Z,626.00
2024-02-24T11:29:10.866Z,624.00
2024-02-24T11:30:10.949Z,627.00
2024-02-24T11:31:11.004Z,630.00
2024-02-24T11:32:11.147Z,629.00
2024-02-24T11:33:11.234Z,631.00
2024-02-24T11:34:11.232Z,625.00
2024-02-24T11:35:11.302Z,626.00
2024-02-24T11:36:11.320Z,627.00
2024-02-24T11:37:11.325Z,630.00
2024-02-24T11:38:11.448Z,630.00
2024-02-24T11:39:11.462Z,627.00
2024-02-24T11:40:11.509Z,628.00
2024-02-24T11:41:11.576Z,627.00
2024-02-24T11:42:11.601Z,630.00
2024-02-24T11:43:11.611Z,629.00
2024-02-24T11:44:11.768Z,630.00
2024-02-24T11:45:11.677Z,627.00
2024-02-24T11:46:11.757Z,631.00
2024-02-24T11:47:11.717Z,631.00
2024-02-24T11:48:11.785Z,631.00
2024-02-24T11:49:11.923Z,632.00
2024-02-24T11:50:11.834Z,634.00
2024-02-24T11:51:11.771Z,630.00
2024-02-24T11:52:11.789Z,630.00
2024-02-24T11:53:11.804Z,632.00
2024-02-24T11:54:11.832Z,628.00
2024-02-24T11:55:11.795Z,632.00
2024-02-24T11:56:11.848Z,630.00
2024-02-24T11:57:11.912Z,631.00
2024-02-24T11:58:11.940Z,633.00
2024-02-24T11:59:12.095Z,631.00
2024-02-24T12:00:12.101Z,627.00
2024-02-24T12:01:12.134Z,629.00
2024-02-24T12:02:12.209Z,630.00
2024-02-24T12:03:12.282Z,632.00
2024-02-24T12:04:12.358Z,633.00
2024-02-24T12:05:12.434Z,633.00
2024-02-24T12:06:12.792Z,635.00
2024-02-24T12:07:12.547Z,631.00
2024-02-24T12:08:12.649Z,636.00
2024-02-24T12:09:12.568Z,632.00
2024-02-24T12:10:12.581Z,633.00
2024-02-24T12:11:12.688Z,632.00
2024-02-24T12:12:12.629Z,632.00
2024-02-24T12:13:12.623Z,633.00
2024-02-24T12:14:12.693Z,632.00
2024-02-24T12:15:12.794Z,634.00
2024-02-24T12:16:12.749Z,630.00
2024-02-24T12:17:12.837Z,633.00
2024-02-24T12:18:13.016Z,630.00
2024-02-24T12:19:12.833Z,633.00
2024-02-24T12:20:12.811Z,633.00
2024-02-24T12:21:12.929Z,634.00
2024-02-24T12:22:12.891Z,634.00
2024-02-24T12:23:13.004Z,631.00
2024-02-24T12:24:13.057Z,633.00
2024-02-24T12:25:13.125Z,631.00
2024-02-24T12:26:13.213Z,634.00
2024-02-24T12:27:13.251Z,635.00
2024-02-24T12:28:13.314Z,632.00
2024-02-24T12:29:13.424Z,634.00
2024-02-24T12:30:13.499Z,632.00
2024-02-24T12:31:13.590Z,635.00